Time;durP1;ratioP1;P1;durP2;ratioP2;P2;SDS_P1;SDS_P2;PMS_P1;PMS_P2;Temp;Humidity;BMP_temperature;BMP_pressure;BME280_temperature;BME280_humidity;BME280_pressure;Samples;Min_cycle;Max_cycle;Signal;HPM_P1;HPM_P2
2022/05/14 00:02:09;;;;;;;5.32;1.63;;;13.50;59.80;;;;;;5085444;28;20027;-61
2022/05/14 00:04:35;;;;;;;7.32;1.65;;;13.40;59.80;;;;;;5095048;28;20094;-62
2022/05/14 00:07:00;;;;;;;7.13;1.42;;;13.40;60.00;;;;;;5083249;28;20024;-62
2022/05/14 00:09:26;;;;;;;4.53;1.48;;;13.40;60.10;;;;;;5080967;28;20056;-62
2022/05/14 00:14:36;;;;;;;;;;;13.30;60.30;;;;;;5083416;28;20036;-61
2022/05/14 00:17:02;;;;;;;2.35;1.52;;;13.30;60.30;;;;;;5085572;28;19912;-62
2022/05/14 00:19:28;;;;;;;2.90;1.40;;;13.30;59.70;;;;;;5089945;28;20117;-61
2022/05/14 00:21:53;;;;;;;5.75;1.83;;;13.30;59.90;;;;;;5081256;28;20080;-62
2022/05/14 00:24:19;;;;;;;4.47;1.73;;;13.30;60.10;;;;;;5081902;28;20071;-61
2022/05/14 00:26:45;;;;;;;5.85;1.30;;;13.20;60.40;;;;;;5078395;28;20029;-62
2022/05/14 00:29:13;;;;;;;5.13;1.50;;;13.20;60.40;;;;;;5084277;28;20049;-61
2022/05/14 00:31:38;;;;;;;2.47;1.90;;;13.10;60.70;;;;;;5086731;28;20020;-61
2022/05/14 00:34:04;;;;;;;4.57;1.77;;;13.10;60.90;;;;;;5082219;28;20031;-61
2022/05/14 00:36:30;;;;;;;7.55;2.72;;;13.10;61.10;;;;;;5081466;28;20024;-61
2022/05/14 00:38:55;;;;;;;5.53;1.80;;;13.00;61.20;;;;;;5086375;28;20028;-61
2022/05/14 00:41:21;;;;;;;5.18;1.60;;;13.00;61.50;;;;;;5075624;28;20025;-61
2022/05/14 00:43:55;;;;;;;4.35;1.80;;;13.00;61.60;;;;;;5086057;28;20057;-61
2022/05/14 00:47:02;;;;;;;6.63;1.55;;;13.00;61.90;;;;;;5072434;28;20483;-62
2022/05/14 00:49:29;;;;;;;3.00;1.42;;;13.00;62.20;;;;;;5080713;28;20771;-61
2022/05/14 00:51:55;;;;;;;1.67;1.20;;;12.90;61.40;;;;;;5082072;28;20028;-61
2022/05/14 00:54:32;;;;;;;2.33;1.23;;;12.90;61.50;;;;;;5082316;28;20039;-61
2022/05/14 00:57:03;;;;;;;5.10;1.17;;;12.90;61.80;;;;;;5078301;28;20020;-61
2022/05/14 00:59:29;;;;;;;3.85;1.50;;;12.90;61.70;;;;;;5089264;28;20032;-60
2022/05/14 01:01:55;;;;;;;3.70;1.58;;;12.90;61.60;;;;;;5078632;28;20063;-64
2022/05/14 01:04:22;;;;;;;5.35;1.50;;;12.80;61.80;;;;;;5081905;28;20045;-61
2022/05/14 01:07:05;;;;;;;3.30;1.27;;;12.90;61.80;;;;;;5075752;28;20028;-61
2022/05/14 01:09:33;;;;;;;3.15;1.33;;;12.90;62.40;;;;;;5076887;28;20040;-61
2022/05/14 01:11:59;;;;;;;5.45;1.35;;;12.80;61.60;;;;;;5083142;28;20024;-61
2022/05/14 01:14:25;;;;;;;2.80;1.17;;;12.80;61.40;;;;;;5085387;28;20070;-61
2022/05/14 01:16:53;;;;;;;2.97;1.40;;;12.70;61.50;;;;;;5084420;28;20029;-61
2022/05/14 01:19:19;;;;;;;5.10;1.55;;;12.80;61.70;;;;;;5080993;28;20024;-61
2022/05/14 01:22:07;;;;;;;5.38;1.30;;;12.70;61.60;;;;;;5084474;28;20104;-61
2022/05/14 01:27:49;;;;;;;;;;;12.60;62.30;;;;;;5088389;28;20105;-61
2022/05/14 01:30:16;;;;;;;4.68;1.48;;;12.70;61.30;;;;;;5089206;28;19915;-61
2022/05/14 01:32:42;;;;;;;3.50;1.17;;;12.60;60.90;;;;;;5083392;28;20044;-61
2022/05/14 01:35:08;;;;;;;4.28;1.20;;;12.60;61.40;;;;;;5079739;28;20040;-62
2022/05/14 01:37:34;;;;;;;2.33;1.17;;;12.50;61.70;;;;;;5076689;28;20028;-62
2022/05/14 01:40:00;;;;;;;5.75;2.20;;;12.50;61.80;;;;;;5082173;28;20067;-61
2022/05/14 01:42:26;;;;;;;4.43;1.38;;;12.50;62.00;;;;;;5074641;28;20024;-61
2022/05/14 01:44:51;;;;;;;4.50;1.30;;;12.40;62.10;;;;;;5077403;28;20391;-61
2022/05/14 01:47:17;;;;;;;4.57;1.35;;;12.40;62.20;;;;;;5082257;28;20024;-61
2022/05/14 01:49:43;;;;;;;4.88;1.50;;;12.40;62.40;;;;;;5073691;28;20052;-60
2022/05/14 01:52:09;;;;;;;3.10;1.52;;;12.40;62.60;;;;;;5085868;28;20065;-61
2022/05/14 01:54:35;;;;;;;3.20;1.98;;;12.40;62.70;;;;;;5072317;28;20021;-62
2022/05/14 01:57:00;;;;;;;5.13;1.52;;;12.40;62.70;;;;;;5080073;28;20021;-61
2022/05/14 01:59:26;;;;;;;7.50;1.63;;;12.30;62.70;;;;;;5081872;28;20047;-61
2022/05/14 02:01:52;;;;;;;4.90;1.30;;;12.40;62.80;;;;;;5080344;28;20021;-61
2022/05/14 02:04:18;;;;;;;4.22;1.33;;;12.30;62.70;;;;;;5085904;28;20111;-61
2022/05/14 02:06:44;;;;;;;3.92;1.55;;;12.30;62.60;;;;;;5081633;28;20391;-61
2022/05/14 02:09:13;;;;;;;2.45;1.40;;;12.30;62.60;;;;;;5077195;28;20051;-61
2022/05/14 02:11:40;;;;;;;5.28;1.23;;;12.30;62.70;;;;;;5083750;28;20024;-62
2022/05/14 02:14:07;;;;;;;2.30;1.45;;;12.30;62.70;;;;;;5093738;28;20029;-60
2022/05/14 02:16:33;;;;;;;5.85;1.80;;;12.20;62.70;;;;;;5088803;28;20044;-61
2022/05/14 02:18:59;;;;;;;2.28;1.20;;;12.20;62.80;;;;;;5079085;28;20028;-62
2022/05/14 02:21:28;;;;;;;3.45;1.23;;;12.20;62.80;;;;;;5080480;28;20051;-61
2022/05/14 02:23:54;;;;;;;6.07;1.20;;;12.20;62.80;;;;;;5069390;28;20044;-61
2022/05/14 02:26:20;;;;;;;6.43;1.25;;;12.20;62.90;;;;;;5082866;28;20040;-61
2022/05/14 02:28:46;;;;;;;2.40;1.50;;;12.10;63.10;;;;;;5081227;28;20033;-62
2022/05/14 02:31:12;;;;;;;3.92;1.15;;;12.10;63.00;;;;;;5078397;28;20024;-61
2022/05/14 02:33:38;;;;;;;4.25;1.42;;;12.10;63.00;;;;;;5079211;28;20044;-61
2022/05/14 02:36:05;;;;;;;2.08;1.30;;;12.10;63.00;;;;;;5084050;28;20029;-62
2022/05/14 02:38:32;;;;;;;4.30;1.08;;;12.10;63.00;;;;;;5082310;28;20044;-62
2022/05/14 02:40:58;;;;;;;5.60;1.65;;;12.00;62.90;;;;;;5078722;28;20055;-61
2022/05/14 02:43:25;;;;;;;4.75;1.38;;;12.00;62.90;;;;;;5084890;28;20025;-62
2022/05/14 02:45:50;;;;;;;5.03;1.30;;;12.00;63.00;;;;;;5082465;28;20136;-62
2022/05/14 02:48:16;;;;;;;3.67;1.80;;;11.90;63.10;;;;;;5075949;28;20137;-62
2022/05/14 02:50:42;;;;;;;4.22;1.50;;;11.90;63.30;;;;;;5079460;28;20049;-61
2022/05/14 02:53:08;;;;;;;4.10;1.30;;;11.90;63.30;;;;;;5076341;28;20032;-61
2022/05/14 02:55:35;;;;;;;3.75;1.45;;;11.90;63.30;;;;;;5085036;28;20032;-61
2022/05/14 02:58:00;;;;;;;2.92;1.30;;;11.90;63.30;;;;;;5083835;28;20025;-62
2022/05/14 03:00:26;;;;;;;2.50;1.40;;;11.80;63.20;;;;;;5082544;28;20032;-61
2022/05/14 03:02:52;;;;;;;9.90;1.90;;;11.80;63.30;;;;;;5078727;28;20032;-61
2022/05/14 03:05:20;;;;;;;3.17;1.13;;;11.80;63.40;;;;;;5085639;28;20435;-61
2022/05/14 03:07:46;;;;;;;5.90;1.20;;;11.80;63.40;;;;;;5084011;28;20037;-61
2022/05/14 03:10:12;;;;;;;4.78;1.80;;;11.80;63.40;;;;;;5083333;28;20044;-61
2022/05/14 03:12:38;;;;;;;4.18;1.00;;;11.80;63.40;;;;;;5082064;28;20712;-61
2022/05/14 03:15:06;;;;;;;8.50;1.30;;;11.70;63.30;;;;;;5085473;28;20096;-61
2022/05/14 03:17:34;;;;;;;4.38;1.65;;;11.70;63.40;;;;;;5089177;28;20131;-61
2022/05/14 03:20:01;;;;;;;2.20;0.93;;;11.70;63.30;;;;;;5082430;28;20043;-61
2022/05/14 03:22:27;;;;;;;1.60;0.75;;;11.70;63.20;;;;;;5085538;28;20024;-61
2022/05/14 03:24:53;;;;;;;7.57;1.17;;;11.70;63.30;;;;;;5082775;28;20095;-61
2022/05/14 03:27:18;;;;;;;1.65;1.08;;;11.60;63.40;;;;;;5087262;28;20088;-61
2022/05/14 03:29:44;;;;;;;4.30;1.25;;;11.60;63.40;;;;;;5087687;28;20028;-62
2022/05/14 03:32:09;;;;;;;2.42;1.20;;;11.50;63.50;;;;;;5081409;28;20032;-61
2022/05/14 03:34:36;;;;;;;4.82;1.50;;;11.50;63.50;;;;;;5086936;28;20098;-61
2022/05/14 03:37:02;;;;;;;2.35;1.30;;;11.50;63.70;;;;;;5088548;28;20024;-61
2022/05/14 03:39:28;;;;;;;4.55;1.40;;;11.50;63.70;;;;;;5080809;28;20080;-61
2022/05/14 03:41:53;;;;;;;2.33;1.15;;;11.40;63.60;;;;;;5087260;28;20021;-61
2022/05/14 03:44:19;;;;;;;1.30;0.95;;;11.40;63.70;;;;;;5087810;28;20062;-62
2022/05/14 03:46:46;;;;;;;3.28;1.10;;;11.40;63.80;;;;;;5083802;28;20039;-61
2022/05/14 03:49:12;;;;;;;2.30;1.30;;;11.40;63.70;;;;;;5080754;28;20065;-61
2022/05/14 03:51:38;;;;;;;2.15;1.10;;;11.30;63.80;;;;;;5089653;28;20139;-61
2022/05/14 03:54:04;;;;;;;2.95;1.10;;;11.30;64.00;;;;;;5075592;28;20546;-61
2022/05/14 03:56:31;;;;;;;2.45;1.00;;;11.30;64.10;;;;;;5083331;28;20036;-61
2022/05/14 03:58:57;;;;;;;3.45;0.93;;;11.30;64.20;;;;;;5097036;28;20020;-61
2022/05/14 04:01:23;;;;;;;3.30;1.00;;;11.30;64.20;;;;;;5088620;28;20078;-61
2022/05/14 04:03:49;;;;;;;2.90;1.10;;;11.20;64.10;;;;;;5087702;28;20038;-62
2022/05/14 04:06:14;;;;;;;4.72;1.10;;;11.20;64.10;;;;;;5081579;28;20024;-61
2022/05/14 04:08:40;;;;;;;2.88;1.17;;;11.20;64.30;;;;;;5079752;28;20036;-62
2022/05/14 04:11:07;;;;;;;6.90;1.00;;;11.20;64.30;;;;;;5082579;28;20032;-61
2022/05/14 04:13:33;;;;;;;2.53;1.23;;;11.20;64.30;;;;;;5086422;28;20024;-62
2022/05/14 04:15:59;;;;;;;2.20;1.25;;;11.20;65.00;;;;;;5093062;28;20023;-61
2022/05/14 04:18:25;;;;;;;2.85;1.10;;;11.20;64.30;;;;;;5077536;28;20021;-61
2022/05/14 04:20:56;;;;;;;5.13;1.38;;;11.20;64.30;;;;;;5073391;28;20029;-61
2022/05/14 04:23:22;;;;;;;2.00;1.23;;;11.20;64.60;;;;;;5092173;28;20032;-62
2022/05/14 04:25:50;;;;;;;2.17;1.20;;;11.30;64.60;;;;;;5077528;28;20028;-61
2022/05/14 04:28:16;;;;;;;4.15;1.23;;;11.30;64.70;;;;;;5089409;28;20379;-61
2022/05/14 04:30:42;;;;;;;1.65;1.00;;;11.30;64.70;;;;;;5085638;28;20103;-61
2022/05/14 04:33:08;;;;;;;2.97;1.10;;;11.30;64.70;;;;;;5083642;28;20039;-61
2022/05/14 04:35:34;;;;;;;2.58;1.25;;;11.30;64.80;;;;;;5079942;28;20020;-61
2022/05/14 04:37:59;;;;;;;3.47;0.95;;;11.40;64.90;;;;;;5075757;28;20035;-61
2022/05/14 04:40:25;;;;;;;3.17;1.10;;;11.40;65.10;;;;;;5086074;28;20081;-61
2022/05/14 04:42:51;;;;;;;2.67;1.23;;;11.50;65.10;;;;;;5079106;28;20048;-61
2022/05/14 04:45:17;;;;;;;2.15;1.38;;;11.50;65.10;;;;;;5088797;28;20024;-61
2022/05/14 04:47:42;;;;;;;2.65;1.45;;;11.60;65.10;;;;;;5082152;28;20029;-61
2022/05/14 04:50:10;;;;;;;3.55;1.38;;;11.70;65.10;;;;;;5087028;28;20095;-61
2022/05/14 04:52:36;;;;;;;2.35;1.27;;;11.80;65.20;;;;;;5080065;28;20036;-61
2022/05/14 04:55:01;;;;;;;4.78;1.20;;;11.80;65.00;;;;;;5083966;28;20032;-61
2022/05/14 04:57:27;;;;;;;7.97;1.58;;;11.90;64.90;;;;;;5089866;28;20084;-62
2022/05/14 04:59:53;;;;;;;5.57;1.33;;;12.00;64.90;;;;;;5088495;28;20024;-61
2022/05/14 05:05:05;;;;;;;2.92;1.27;;;12.20;64.90;;;;;;5084589;28;20059;-61
2022/05/14 05:07:30;;;;;;;4.90;1.20;;;12.40;64.90;;;;;;5077044;28;20032;-61
2022/05/14 05:09:56;;;;;;;5.75;1.23;;;12.50;64.80;;;;;;5087713;28;20040;-62
2022/05/14 05:12:21;;;;;;;5.13;1.38;;;12.60;64.40;;;;;;5083491;28;20024;-61
2022/05/14 05:14:47;;;;;;;4.20;1.40;;;12.70;64.20;;;;;;5080655;28;20764;-61
2022/05/14 05:17:13;;;;;;;1.52;1.17;;;12.80;64.00;;;;;;5078108;28;20028;-61
2022/05/14 05:19:39;;;;;;;4.50;1.40;;;12.90;63.90;;;;;;5080917;28;20021;-62
2022/05/14 05:22:05;;;;;;;2.75;1.20;;;13.00;63.70;;;;;;5076521;28;20063;-61
2022/05/14 05:24:32;;;;;;;4.32;1.60;;;13.00;63.40;;;;;;5079960;28;20048;-61
2022/05/14 05:26:58;;;;;;;6.55;1.58;;;13.10;63.30;;;;;;5082273;28;20025;-62
2022/05/14 05:29:23;;;;;;;3.28;1.55;;;13.20;63.20;;;;;;5075873;28;20036;-61
2022/05/14 05:31:49;;;;;;;2.90;1.08;;;13.30;63.10;;;;;;5084126;28;20122;-61
2022/05/14 05:34:15;;;;;;;9.05;1.23;;;13.40;63.00;;;;;;5079791;28;20020;-62
2022/05/14 05:36:40;;;;;;;4.97;1.40;;;13.50;63.00;;;;;;5070288;28;20016;-62
2022/05/14 05:39:06;;;;;;;6.53;1.58;;;13.60;63.00;;;;;;5080664;28;20094;-62
2022/05/14 05:41:32;;;;;;;3.95;1.13;;;13.70;62.80;;;;;;5075696;28;20044;-62
2022/05/14 05:43:58;;;;;;;5.03;1.10;;;13.80;62.60;;;;;;5073084;28;20021;-61
2022/05/14 05:46:23;;;;;;;2.13;1.13;;;13.90;62.50;;;;;;5084122;28;20494;-62
2022/05/14 05:48:49;;;;;;;3.95;1.20;;;14.10;62.60;;;;;;5066593;28;20041;-61
2022/05/14 05:51:15;;;;;;;3.55;1.25;;;14.20;62.40;;;;;;5079649;28;20040;-61
2022/05/14 05:59:09;;;;;;;3.42;1.25;;;14.60;62.20;;;;;;5080946;28;20039;-61
2022/05/14 06:01:35;;;;;;;4.28;1.50;;;14.80;61.90;;;;;;5088490;28;20060;-61
2022/05/14 06:04:01;;;;;;;9.13;1.35;;;14.90;61.60;;;;;;5083465;28;20036;-61
2022/05/14 06:06:26;;;;;;;5.68;1.50;;;15.10;61.70;;;;;;5072603;28;20046;-61
2022/05/14 06:08:53;;;;;;;6.35;1.50;;;15.30;61.70;;;;;;5084129;28;20064;-61
2022/05/14 06:11:19;;;;;;;7.93;1.38;;;15.40;61.40;;;;;;5086101;28;20038;-61
2022/05/14 06:13:45;;;;;;;6.30;1.95;;;15.60;60.90;;;;;;5084168;28;20067;-61
2022/05/14 06:16:12;;;;;;;7.00;1.50;;;15.80;60.60;;;;;;5082885;28;20028;-61
2022/05/14 06:18:38;;;;;;;7.57;1.27;;;16.00;60.20;;;;;;5085728;28;20107;-62
2022/05/14 06:21:05;;;;;;;3.40;1.52;;;16.10;60.00;;;;;;5075204;28;20033;-61
2022/05/14 06:23:31;;;;;;;3.95;1.60;;;16.20;59.80;;;;;;5075709;28;20062;-61
2022/05/14 06:25:57;;;;;;;4.30;1.52;;;16.40;59.50;;;;;;5084217;28;20043;-62
2022/05/14 06:28:23;;;;;;;5.25;1.75;;;16.50;59.40;;;;;;5080588;28;20127;-61
2022/05/14 06:30:49;;;;;;;5.75;1.58;;;16.70;59.20;;;;;;5082513;28;20055;-62
2022/05/14 06:33:16;;;;;;;3.83;1.52;;;16.80;59.30;;;;;;5074966;28;20050;-62
2022/05/14 06:35:43;;;;;;;16.45;1.85;;;17.00;59.30;;;;;;5075791;28;20020;-61
2022/05/14 06:38:09;;;;;;;4.40;1.65;;;17.20;59.20;;;;;;5082124;28;20020;-61
2022/05/14 06:40:35;;;;;;;6.28;1.63;;;17.30;58.80;;;;;;5082236;28;20104;-62
2022/05/14 06:43:01;;;;;;;10.23;1.80;;;17.50;58.60;;;;;;5076984;28;20096;-61
2022/05/14 06:45:27;;;;;;;7.85;1.92;;;17.70;58.50;;;;;;5079168;28;20121;-61
2022/05/14 06:47:53;;;;;;;12.27;1.42;;;17.80;58.20;;;;;;5083971;28;20048;-61
2022/05/14 06:50:19;;;;;;;10.52;2.10;;;18.00;57.90;;;;;;5069549;28;20056;-61
2022/05/14 06:52:48;;;;;;;9.70;1.50;;;18.20;57.80;;;;;;5075923;28;20021;-61
2022/05/14 06:55:19;;;;;;;9.80;1.60;;;18.30;57.50;;;;;;5091644;28;20020;-62
2022/05/14 06:57:46;;;;;;;5.90;1.30;;;18.50;57.50;;;;;;5076600;28;20025;-61
2022/05/14 07:00:12;;;;;;;10.07;1.40;;;18.70;57.50;;;;;;5078536;28;20058;-61
2022/05/14 07:02:39;;;;;;;7.80;1.45;;;18.80;57.20;;;;;;5079282;28;20599;-61
2022/05/14 07:07:49;;;;;;;7.50;1.30;;;19.20;56.10;;;;;;5070799;28;20043;-61
2022/05/14 07:10:15;;;;;;;4.50;1.15;;;19.40;55.80;;;;;;5076247;28;20037;-62
2022/05/14 07:12:41;;;;;;;7.32;1.40;;;19.50;55.70;;;;;;5072715;28;20080;-62
2022/05/14 07:15:07;;;;;;;5.47;1.10;;;19.70;55.60;;;;;;5071913;28;20033;-62
2022/05/14 07:17:33;;;;;;;14.30;1.80;;;19.80;55.50;;;;;;5070641;28;20028;-61
2022/05/14 07:19:58;;;;;;;13.82;1.58;;;20.00;55.80;;;;;;5076585;28;20036;-62
2022/05/14 07:22:24;;;;;;;9.93;1.60;;;20.20;55.60;;;;;;5074682;28;20029;-62
2022/05/14 07:24:51;;;;;;;5.03;0.77;;;20.30;55.20;;;;;;5073043;28;20020;-61
2022/05/14 07:27:17;;;;;;;2.97;0.90;;;20.50;54.60;;;;;;5078803;28;20029;-62
2022/05/14 07:29:45;;;;;;;3.03;0.98;;;20.60;53.90;;;;;;5074322;28;20045;-62
2022/05/14 07:32:13;;;;;;;6.20;1.10;;;20.80;53.40;;;;;;5087410;28;20574;-62
2022/05/14 07:34:40;;;;;;;2.47;0.80;;;20.90;53.10;;;;;;5079239;28;20025;-62
2022/05/14 07:37:07;;;;;;;5.05;0.70;;;21.10;53.00;;;;;;5080761;28;20075;-62
2022/05/14 07:39:55;;;;;;;1.63;0.57;;;21.30;52.70;;;;;;5079820;28;20043;-62
2022/05/14 07:42:37;;;;;;;2.88;0.70;;;21.40;51.20;;;;;;5076056;28;20075;-62
2022/05/14 07:45:05;;;;;;;2.38;0.60;;;21.70;50.00;;;;;;5081641;28;20032;-62
2022/05/14 07:47:31;;;;;;;3.17;0.90;;;21.80;51.80;;;;;;5078375;28;20037;-62
2022/05/14 07:49:58;;;;;;;3.72;1.10;;;21.90;50.20;;;;;;5074599;28;20036;-62
2022/05/14 07:52:24;;;;;;;6.18;1.23;;;22.10;49.90;;;;;;5082055;28;20032;-62
2022/05/14 07:54:50;;;;;;;6.95;0.90;;;22.20;49.00;;;;;;5077044;28;20033;-62
2022/05/14 07:57:18;;;;;;;4.20;0.98;;;22.40;48.70;;;;;;5079075;28;20037;-61
2022/05/14 07:59:44;;;;;;;4.05;0.80;;;22.50;48.40;;;;;;5087745;28;20059;-62
2022/05/14 08:02:34;;;;;;;2.35;0.80;;;22.60;48.20;;;;;;5082699;28;20025;-61
2022/05/14 08:05:03;;;;;;;2.83;0.73;;;22.60;47.00;;;;;;5077379;28;20024;-61
2022/05/14 08:07:29;;;;;;;2.25;0.75;;;22.70;48.10;;;;;;5078099;28;20017;-61
2022/05/14 08:09:55;;;;;;;7.45;0.68;;;22.90;48.60;;;;;;5084802;28;20032;-62
2022/05/14 08:12:21;;;;;;;1.67;1.10;;;23.00;48.10;;;;;;5088377;28;20035;-62
2022/05/14 08:14:47;;;;;;;4.10;0.90;;;23.10;47.90;;;;;;5094217;28;20021;-61
2022/05/14 08:17:13;;;;;;;2.50;0.75;;;23.20;47.70;;;;;;5074210;28;20143;-62
2022/05/14 08:19:38;;;;;;;2.88;1.00;;;23.40;47.50;;;;;;5075643;28;20024;-61
2022/05/14 08:24:49;;;;;;;6.97;0.90;;;23.50;46.90;;;;;;5088176;28;20031;-62
2022/05/14 08:27:16;;;;;;;7.57;1.02;;;23.60;46.60;;;;;;5078401;28;20033;-62
2022/05/14 08:29:45;;;;;;;3.35;1.10;;;23.80;46.10;;;;;;5082355;28;20032;-62
2022/05/14 08:32:11;;;;;;;6.05;0.93;;;23.80;44.70;;;;;;5084051;28;20078;-61
2022/05/14 08:34:37;;;;;;;4.65;1.10;;;23.80;44.50;;;;;;5081618;28;20025;-61
2022/05/14 08:37:03;;;;;;;7.75;1.25;;;23.90;44.00;;;;;;5080962;28;20107;-62
2022/05/14 08:39:29;;;;;;;3.47;1.00;;;23.90;43.60;;;;;;5081710;28;20510;-61
2022/05/14 08:41:56;;;;;;;4.53;1.23;;;23.90;43.20;;;;;;5079846;28;20033;-61
2022/05/14 08:44:30;;;;;;;4.97;1.17;;;23.90;42.40;;;;;;5078961;28;20028;-62
2022/05/14 08:46:59;;;;;;;3.67;0.93;;;23.80;42.50;;;;;;5078878;28;20039;-62
2022/05/14 08:49:44;;;;;;;3.80;1.00;;;23.90;42.40;;;;;;5076267;28;20040;-61
2022/05/14 08:52:16;;;;;;;4.28;1.02;;;23.80;41.20;;;;;;5082850;28;20028;-61
2022/05/14 08:54:42;;;;;;;4.10;0.73;;;23.80;40.50;;;;;;5086686;28;20029;-61
2022/05/14 08:57:35;;;;;;;5.20;1.00;;;23.80;41.50;;;;;;5072548;28;20125;-61
2022/05/14 09:00:02;;;;;;;6.75;1.63;;;23.80;40.20;;;;;;5074346;28;20064;-61
2022/05/14 09:02:33;;;;;;;5.57;0.93;;;23.80;41.40;;;;;;5083831;28;20017;-61
2022/05/14 09:05:10;;;;;;;6.00;1.70;;;23.80;41.40;;;;;;5066356;28;20048;-61
2022/05/14 09:07:37;;;;;;;4.30;1.00;;;23.90;41.60;;;;;;5077470;28;20044;-62
2022/05/14 09:10:08;;;;;;;3.25;1.02;;;24.00;42.70;;;;;;5077182;28;20042;-61
2022/05/14 09:12:47;;;;;;;4.18;0.80;;;24.10;41.50;;;;;;5082502;28;20036;-61
2022/05/14 09:15:15;;;;;;;2.55;0.73;;;24.10;42.10;;;;;;5086077;28;20037;-61
2022/05/14 09:17:41;;;;;;;1.95;0.90;;;24.20;41.60;;;;;;5077832;28;20023;-61
2022/05/14 09:20:07;;;;;;;4.57;1.00;;;24.30;42.00;;;;;;5080316;28;20024;-62
2022/05/14 09:22:49;;;;;;;2.50;0.95;;;24.50;41.30;;;;;;5079770;28;20039;-61
2022/05/14 09:25:32;;;;;;;3.33;0.88;;;24.50;40.40;;;;;;5074365;28;20062;-61
2022/05/14 09:28:08;;;;;;;2.33;1.05;;;24.70;40.10;;;;;;5073516;28;20040;-62
2022/05/14 09:30:41;;;;;;;6.80;0.85;;;24.70;40.40;;;;;;5079088;28;20067;-61
2022/05/14 09:33:21;;;;;;;3.20;0.88;;;24.80;40.70;;;;;;5082530;28;20064;-61
2022/05/14 09:35:54;;;;;;;4.20;0.95;;;24.90;41.20;;;;;;5084920;28;20432;-61
2022/05/14 09:38:23;;;;;;;3.10;1.00;;;25.00;40.90;;;;;;5075676;28;20028;-61
2022/05/14 09:40:49;;;;;;;2.28;1.08;;;25.00;40.80;;;;;;5081502;28;20383;-62
2022/05/14 09:43:15;;;;;;;3.33;0.95;;;25.10;40.90;;;;;;5075225;28;20040;-62
2022/05/14 09:46:06;;;;;;;2.45;0.90;;;25.10;40.10;;;;;;5082833;28;20029;-61
2022/05/14 09:48:53;;;;;;;3.45;1.00;;;25.20;39.90;;;;;;5082317;28;20036;-61
2022/05/14 09:51:31;;;;;;;1.73;0.70;;;25.20;39.20;;;;;;5082335;28;20039;-61
2022/05/14 09:54:13;;;;;;;4.68;1.02;;;25.20;40.70;;;;;;5073578;28;20032;-61
2022/05/14 09:57:08;;;;;;;4.78;1.30;;;25.30;39.50;;;;;;5076739;28;20028;-61
2022/05/14 09:59:44;;;;;;;3.80;0.80;;;25.30;37.80;;;;;;5068127;28;20071;-61
2022/05/14 10:02:44;;;;;;;3.15;1.08;;;25.30;38.80;;;;;;5075874;28;20017;-61
2022/05/14 10:05:15;;;;;;;10.80;1.10;;;25.30;39.50;;;;;;5074936;28;20037;-62
2022/05/14 10:07:50;;;;;;;5.47;1.60;;;25.30;39.20;;;;;;5070410;28;20028;-61
2022/05/14 10:10:51;;;;;;;2.30;0.90;;;25.30;39.20;;;;;;5079227;28;20084;-61
2022/05/14 10:13:26;;;;;;;3.30;1.15;;;25.30;38.20;;;;;;5062750;28;20119;-62
2022/05/14 10:16:15;;;;;;;3.25;0.95;;;25.30;36.70;;;;;;5055266;28;20508;-62
2022/05/14 10:18:50;;;;;;;1.92;0.80;;;25.30;37.80;;;;;;5055354;28;20021;-61
2022/05/14 10:21:36;;;;;;;4.90;1.30;;;25.40;36.70;;;;;;5060347;28;21709;-62
2022/05/14 10:27:15;;;;;;;2.75;1.05;;;25.50;38.50;;;;;;5055440;28;20044;-61
2022/05/14 10:30:05;;;;;;;4.47;1.42;;;25.60;38.10;;;;;;5053887;28;20055;-61
2022/05/14 10:32:32;;;;;;;3.92;1.00;;;25.70;37.60;;;;;;5043490;28;20088;-61
2022/05/14 10:35:22;;;;;;;6.70;2.05;;;25.80;38.20;;;;;;5052212;28;20045;-62
2022/05/14 10:38:01;;;;;;;4.00;1.10;;;25.80;38.50;;;;;;5054332;28;20036;-61
2022/05/14 10:40:38;;;;;;;2.60;0.90;;;25.80;39.10;;;;;;5048858;28;20037;-62
2022/05/14 10:43:13;;;;;;;8.63;1.35;;;25.90;39.10;;;;;;5061170;28;20070;-61
2022/05/14 10:45:47;;;;;;;4.75;1.10;;;26.00;38.00;;;;;;5052120;28;20029;-62
2022/05/14 10:48:34;;;;;;;2.78;1.00;;;26.00;36.20;;;;;;5065762;28;20054;-62
2022/05/14 10:51:02;;;;;;;9.40;0.98;;;26.00;37.80;;;;;;5088759;28;20103;-62
2022/05/14 10:53:28;;;;;;;9.18;1.38;;;26.00;38.10;;;;;;5082562;28;20035;-63
2022/05/14 10:56:04;;;;;;;2.47;1.40;;;26.10;37.70;;;;;;5084210;28;20025;-63
2022/05/14 10:58:43;;;;;;;3.90;0.77;;;26.20;37.30;;;;;;5073074;28;20074;-62
2022/05/14 11:01:30;;;;;;;3.38;1.08;;;26.20;38.10;;;;;;5079664;28;20048;-63
2022/05/14 11:03:58;;;;;;;3.35;0.95;;;26.40;37.80;;;;;;5075294;28;20021;-63
2022/05/14 11:06:32;;;;;;;2.33;1.00;;;26.50;37.50;;;;;;5072591;28;20025;-63
2022/05/14 11:08:58;;;;;;;3.08;1.00;;;26.60;37.40;;;;;;5075432;28;20040;-62
2022/05/14 11:11:27;;;;;;;4.00;1.17;;;26.60;36.70;;;;;;5088268;28;20032;-63
2022/05/14 11:13:58;;;;;;;4.72;1.35;;;26.70;36.00;;;;;;5080050;28;20037;-62
2022/05/14 11:16:52;;;;;;;2.75;1.08;;;26.60;36.40;;;;;;5081073;28;20028;-63
2022/05/14 11:19:33;;;;;;;3.22;0.80;;;26.60;35.40;;;;;;5084625;28;20328;-63
2022/05/14 11:22:00;;;;;;;2.67;1.05;;;26.60;35.80;;;;;;5084018;28;20028;-62
2022/05/14 11:24:31;;;;;;;4.30;1.10;;;26.60;35.90;;;;;;5076209;28;20115;-62
2022/05/14 11:26:57;;;;;;;16.45;4.05;;;26.60;36.50;;;;;;5079470;28;20028;-62
2022/05/14 11:29:26;;;;;;;3.45;1.10;;;26.70;37.00;;;;;;5072655;28;20100;-62
2022/05/14 11:32:04;;;;;;;5.47;1.75;;;26.80;36.30;;;;;;5088873;28;20020;-62
2022/05/14 11:34:30;;;;;;;4.57;1.20;;;27.00;36.30;;;;;;5080537;28;20217;-62
2022/05/14 11:36:58;;;;;;;2.45;0.63;;;27.10;37.10;;;;;;5084461;28;20057;-62
2022/05/14 11:39:36;;;;;;;3.00;1.20;;;27.20;36.00;;;;;;5081673;28;20058;-62
2022/05/14 11:42:34;;;;;;;3.08;1.05;;;27.20;35.50;;;;;;5085119;28;20021;-62
2022/05/14 11:45:12;;;;;;;2.75;1.33;;;27.30;34.60;;;;;;5002327;28;20342;-62
2022/05/14 11:47:42;;;;;;;1.90;0.60;;;27.20;33.80;;;;;;5004802;28;20096;-62
2022/05/14 11:50:10;;;;;;;3.95;1.35;;;27.20;34.20;;;;;;4999341;28;20077;-62
2022/05/14 11:53:10;;;;;;;5.07;1.20;;;27.20;35.90;;;;;;5004206;28;20034;-62
2022/05/14 11:55:44;;;;;;;5.68;0.85;;;27.20;36.30;;;;;;5000389;28;20042;-62
2022/05/14 11:58:31;;;;;;;2.95;1.10;;;27.30;35.30;;;;;;4992125;28;20321;-62
2022/05/14 12:00:58;;;;;;;3.83;1.00;;;27.40;36.40;;;;;;4997894;28;20030;-62
2022/05/14 12:03:40;;;;;;;2.13;0.82;;;27.50;35.80;;;;;;4998388;28;20042;-61
2022/05/14 12:06:23;;;;;;;1.42;0.73;;;27.60;34.70;;;;;;5004414;28;20197;-62
2022/05/14 12:09:07;;;;;;;2.28;1.10;;;27.70;34.30;;;;;;4995832;28;20046;-62
2022/05/14 12:11:42;;;;;;;1.20;0.68;;;27.80;33.60;;;;;;5003739;28;20034;-62
2022/05/14 12:14:07;;;;;;;6.43;1.92;;;27.70;33.10;;;;;;5000778;28;20041;-62
2022/05/14 12:16:39;;;;;;;4.30;1.20;;;27.70;34.00;;;;;;5002029;28;20034;-62
2022/05/14 12:19:15;;;;;;;2.28;1.00;;;27.60;34.50;;;;;;4999039;28;20453;-63
2022/05/14 12:21:42;;;;;;;3.58;1.30;;;27.60;34.80;;;;;;5071571;28;20092;-63
2022/05/14 12:24:27;;;;;;;2.45;1.08;;;27.70;33.60;;;;;;5070594;28;20024;-61
2022/05/14 12:26:53;;;;;;;4.10;1.05;;;27.60;32.10;;;;;;5076525;28;20378;-61
2022/05/14 12:29:31;;;;;;;3.65;1.08;;;27.60;33.00;;;;;;5081182;28;20057;-61
2022/05/14 12:34:44;;;;;;;2.92;0.90;;;27.60;33.60;;;;;;5078341;28;20036;-62
2022/05/14 12:37:38;;;;;;;3.30;1.38;;;27.60;33.50;;;;;;5073847;28;20112;-60
2022/05/14 12:40:05;;;;;;;2.83;0.82;;;27.70;32.70;;;;;;5072267;28;20070;-61
2022/05/14 12:42:33;;;;;;;2.85;0.90;;;27.80;32.90;;;;;;5073745;28;20085;-61
2022/05/14 12:44:59;;;;;;;2.58;1.17;;;27.80;32.80;;;;;;5076453;28;21186;-62
2022/05/14 12:47:30;;;;;;;11.13;2.97;;;27.90;34.20;;;;;;5080534;28;20031;-62
2022/05/14 12:49:57;;;;;;;2.20;0.90;;;28.00;33.80;;;;;;5075226;28;20055;-61
2022/05/14 12:52:32;;;;;;;2.25;0.73;;;28.10;33.50;;;;;;5075340;28;20028;-61
2022/05/14 12:55:11;;;;;;;2.45;1.13;;;28.30;32.50;;;;;;5077233;28;20052;-61
2022/05/14 12:57:39;;;;;;;2.35;0.82;;;28.40;32.10;;;;;;5076376;28;20052;-62
2022/05/14 13:00:07;;;;;;;2.00;0.80;;;28.50;31.50;;;;;;5075829;28;20021;-61
2022/05/14 13:02:47;;;;;;;3.10;0.85;;;28.50;31.80;;;;;;5077531;28;20023;-62
2022/05/14 13:05:19;;;;;;;1.98;0.85;;;28.50;32.70;;;;;;5069263;28;20029;-61
2022/05/14 13:07:51;;;;;;;2.42;1.00;;;28.60;32.30;;;;;;5078392;28;20052;-61
2022/05/14 13:10:20;;;;;;;2.70;0.82;;;28.60;31.50;;;;;;5085950;28;20367;-61
2022/05/14 13:13:02;;;;;;;3.47;1.40;;;28.70;31.90;;;;;;5082070;28;20056;-64
2022/05/14 13:15:37;;;;;;;3.10;0.75;;;28.80;30.20;;;;;;5085018;28;20050;-61
2022/05/14 13:18:23;;;;;;;4.07;1.25;;;28.80;29.30;;;;;;5082882;28;20059;-61
2022/05/14 13:21:05;;;;;;;3.10;0.70;;;28.70;29.70;;;;;;5091579;28;20028;-61
2022/05/14 13:23:35;;;;;;;1.20;0.63;;;28.60;28.80;;;;;;5079983;28;22561;-61
2022/05/14 13:26:12;;;;;;;1.55;0.70;;;28.60;29.20;;;;;;5005077;28;20037;-62
2022/05/14 13:28:44;;;;;;;1.52;1.00;;;28.60;28.60;;;;;;5079940;28;20482;-62